createdAt,value
2022-12-15T00:00:17.308Z,13.43
2022-12-15T00:03:02.948Z,7.40
2022-12-15T00:05:50.169Z,7.57
2022-12-15T00:08:36.365Z,15.20
2022-12-15T00:11:22.321Z,11.95
2022-12-15T00:14:07.761Z,8.30
2022-12-15T00:16:53.223Z,9.80
2022-12-15T00:19:38.667Z,10.30
2022-12-15T00:22:25.036Z,13.65
2022-12-15T00:25:10.647Z,11.20
2022-12-15T00:27:55.978Z,14.38
2022-12-15T00:30:41.463Z,11.88
2022-12-15T00:33:29.301Z,9.73
2022-12-15T00:36:17.816Z,14.70
2022-12-15T00:38:45.593Z,7.55
2022-12-15T00:41:16.488Z,14.45
2022-12-15T00:43:44.305Z,11.55
2022-12-15T00:46:30.349Z,12.25
2022-12-15T00:48:57.492Z,10.55
2022-12-15T00:51:43.664Z,11.43
2022-12-15T00:54:29.542Z,10.10
2022-12-15T00:57:15.635Z,14.20
2022-12-15T01:00:01.235Z,14.75
2022-12-15T01:02:46.692Z,13.63
2022-12-15T01:05:32.033Z,13.05
2022-12-15T01:08:18.492Z,10.80
2022-12-15T01:11:03.837Z,11.63
2022-12-15T01:13:49.771Z,10.93
2022-12-15T01:16:35.793Z,7.03
2022-12-15T01:19:21.003Z,5.53
2022-12-15T01:21:49.606Z,3.42
2022-12-15T01:24:16.465Z,3.90
2022-12-15T01:26:43.360Z,10.52
2022-12-15T01:29:10.202Z,12.63
2022-12-15T01:31:37.088Z,11.02
2022-12-15T01:34:03.952Z,15.93
2022-12-15T01:36:31.174Z,13.38
2022-12-15T01:38:57.976Z,10.43
2022-12-15T01:41:25.083Z,14.30
2022-12-15T01:43:51.955Z,11.13
2022-12-15T01:46:24.807Z,16.58
2022-12-15T01:49:23.814Z,17.35
2022-12-15T01:51:56.032Z,16.75
2022-12-15T01:54:33.587Z,13.82
2022-12-15T01:57:07.100Z,12.90
2022-12-15T01:59:39.426Z,10.07
2022-12-15T02:02:06.488Z,10.57
2022-12-15T02:04:34.313Z,14.68
2022-12-15T02:07:01.096Z,20.77
2022-12-15T02:09:28.581Z,20.10
2022-12-15T02:11:55.276Z,12.43
2022-12-15T02:14:44.917Z,22.15
2022-12-15T02:17:33.781Z,14.38
2022-12-15T02:20:50.298Z,13.80
2022-12-15T02:24:32.832Z,15.35
2022-12-15T02:27:36.876Z,15.90
2022-12-15T02:30:18.593Z,14.77
2022-12-15T02:33:01.370Z,10.63
2022-12-15T02:35:56.150Z,15.30
2022-12-15T02:38:49.312Z,21.38
2022-12-15T02:41:36.473Z,19.55
2022-12-15T02:44:56.481Z,15.93
2022-12-15T02:47:31.443Z,14.48
2022-12-15T02:50:25.295Z,11.18
2022-12-15T02:53:07.043Z,14.15
2022-12-15T02:56:19.118Z,12.45
2022-12-15T02:59:33.110Z,12.07
2022-12-15T03:02:07.590Z,15.85
2022-12-15T03:04:34.732Z,17.38
2022-12-15T03:07:09.337Z,11.10
2022-12-15T03:09:36.350Z,15.45
2022-12-15T03:12:03.323Z,8.38
2022-12-15T03:14:30.279Z,11.57
2022-12-15T03:16:57.193Z,13.00
2022-12-15T03:19:24.278Z,11.35
2022-12-15T03:21:51.305Z,12.50
2022-12-15T03:24:18.095Z,9.45
2022-12-15T03:26:48.513Z,8.18
2022-12-15T03:29:16.448Z,7.38
2022-12-15T03:31:44.369Z,13.52
2022-12-15T03:34:11.427Z,9.93
2022-12-15T03:36:38.516Z,12.10
2022-12-15T03:39:05.599Z,12.23
2022-12-15T03:41:32.753Z,11.98
2022-12-15T03:44:00.725Z,13.63
2022-12-15T03:46:27.742Z,12.30
2022-12-15T03:48:54.665Z,12.98
2022-12-15T03:51:21.837Z,15.13
2022-12-15T03:53:49.275Z,10.43
2022-12-15T03:56:17.296Z,12.70
2022-12-15T03:58:44.132Z,13.63
2022-12-15T04:01:27.938Z,11.35
2022-12-15T04:04:00.594Z,10.10
2022-12-15T04:06:29.434Z,14.43
2022-12-15T04:08:56.264Z,9.02
2022-12-15T04:11:23.172Z,10.23
2022-12-15T04:13:50.037Z,12.55
2022-12-15T04:16:20.191Z,10.75
2022-12-15T04:19:07.924Z,9.23
2022-12-15T04:21:34.761Z,8.63
2022-12-15T04:24:20.277Z,13.80
2022-12-15T04:27:05.680Z,7.07
2022-12-15T04:29:51.177Z,10.55
2022-12-15T04:32:36.435Z,13.77
2022-12-15T04:35:21.938Z,13.55
2022-12-15T04:38:07.333Z,18.65
2022-12-15T04:40:52.974Z,13.77
2022-12-15T04:43:38.195Z,11.75
2022-12-15T04:46:23.937Z,15.45
2022-12-15T04:49:09.687Z,14.90
2022-12-15T04:51:55.080Z,14.77
2022-12-15T04:54:40.596Z,15.65
2022-12-15T04:57:25.987Z,11.60
2022-12-15T05:00:11.484Z,15.43
2022-12-15T05:02:56.815Z,18.73
2022-12-15T05:05:42.179Z,10.95
2022-12-15T05:08:27.603Z,13.55
2022-12-15T05:11:12.887Z,18.13
2022-12-15T05:13:58.270Z,14.18
2022-12-15T05:16:43.689Z,14.45
2022-12-15T05:19:29.035Z,13.40
2022-12-15T05:22:14.622Z,19.13
2022-12-15T05:25:00.094Z,13.90
2022-12-15T05:27:45.399Z,23.40
2022-12-15T05:30:30.722Z,10.30
2022-12-15T05:32:57.563Z,11.32
2022-12-15T05:35:24.651Z,15.65
2022-12-15T05:37:51.655Z,11.30
2022-12-15T05:40:18.474Z,10.52
2022-12-15T05:42:49.974Z,13.15
2022-12-15T05:45:17.192Z,16.15
2022-12-15T05:47:43.982Z,15.68
2022-12-15T05:50:10.856Z,12.85
2022-12-15T05:52:37.684Z,8.60
2022-12-15T05:55:05.800Z,12.15
2022-12-15T05:57:32.580Z,12.40
2022-12-15T05:59:59.370Z,17.42
2022-12-15T06:02:28.536Z,19.45
2022-12-15T06:04:55.502Z,17.13
2022-12-15T06:07:22.457Z,14.85
2022-12-15T06:09:49.321Z,16.02
2022-12-15T06:12:16.573Z,10.77
2022-12-15T06:14:43.391Z,16.08
2022-12-15T06:17:10.209Z,18.75
2022-12-15T06:19:37.007Z,6.47
2022-12-15T06:22:03.862Z,0.73
2022-12-15T06:24:30.700Z,1.38
2022-12-15T06:26:57.601Z,11.73
2022-12-15T06:29:24.480Z,12.38
2022-12-15T06:31:51.367Z,15.38
2022-12-15T06:34:19.344Z,14.75
2022-12-15T06:36:46.355Z,20.05
2022-12-15T06:39:15.385Z,23.35
2022-12-15T06:41:43.578Z,11.80
2022-12-15T06:44:15.558Z,14.13
2022-12-15T06:46:43.425Z,11.93
2022-12-15T06:49:10.486Z,15.98
2022-12-15T06:51:37.626Z,13.85
2022-12-15T06:54:04.625Z,9.80
2022-12-15T06:56:38.699Z,17.08
2022-12-15T06:59:07.468Z,13.05
2022-12-15T07:01:35.060Z,14.38
2022-12-15T07:04:04.740Z,12.98
2022-12-15T07:06:39.320Z,13.02
2022-12-15T07:09:16.024Z,11.43
2022-12-15T07:11:42.878Z,12.80
2022-12-15T07:14:10.413Z,13.52
2022-12-15T07:16:37.317Z,14.25
2022-12-15T07:19:04.314Z,19.98
2022-12-15T07:21:32.033Z,21.20
2022-12-15T07:24:00.021Z,19.35
2022-12-15T07:26:27.566Z,19.88
2022-12-15T07:28:54.650Z,15.68
2022-12-15T07:31:23.011Z,10.23
2022-12-15T07:33:52.089Z,18.05
2022-12-15T07:36:19.116Z,17.30
2022-12-15T07:38:50.442Z,12.57
2022-12-15T07:41:19.076Z,10.48
2022-12-15T07:43:47.063Z,12.90
2022-12-15T07:46:14.155Z,13.50
2022-12-15T07:48:41.074Z,17.13
2022-12-15T07:51:15.318Z,16.33
2022-12-15T07:53:50.006Z,13.32
2022-12-15T07:56:18.398Z,15.40
2022-12-15T07:58:45.461Z,13.95
2022-12-15T08:01:14.285Z,7.20
2022-12-15T08:03:41.711Z,2.40
2022-12-15T08:06:12.446Z,11.85
2022-12-15T08:08:40.338Z,19.13
2022-12-15T08:11:10.210Z,8.30
2022-12-15T08:14:02.098Z,11.77
2022-12-15T08:16:25.680Z,15.93
2022-12-15T08:18:52.753Z,6.38
2022-12-15T08:21:19.684Z,10.13
2022-12-15T08:23:46.784Z,19.35
2022-12-15T08:26:17.115Z,16.27
2022-12-15T08:28:45.068Z,13.90
2022-12-15T08:31:20.353Z,12.85
2022-12-15T08:33:48.469Z,11.45
2022-12-15T08:36:18.471Z,17.38
2022-12-15T08:38:46.827Z,13.02
2022-12-15T08:41:19.629Z,11.80
2022-12-15T08:43:49.259Z,11.10
2022-12-15T08:46:28.013Z,15.85
2022-12-15T08:48:55.618Z,22.35
2022-12-15T08:51:25.381Z,16.50
2022-12-15T08:53:52.756Z,11.05
2022-12-15T08:56:22.207Z,12.40
2022-12-15T08:58:51.007Z,10.32
2022-12-15T09:01:23.682Z,15.38
2022-12-15T09:03:56.272Z,8.75
2022-12-15T09:06:30.295Z,11.68
2022-12-15T09:09:00.339Z,18.50
2022-12-15T09:11:28.911Z,20.98
2022-12-15T09:13:56.483Z,16.67
2022-12-15T09:16:24.030Z,17.85
2022-12-15T09:18:54.679Z,21.60
2022-12-15T09:21:25.998Z,14.10
2022-12-15T09:23:55.795Z,20.48
2022-12-15T09:26:23.723Z,21.48
2022-12-15T09:28:51.148Z,19.42
2022-12-15T09:31:22.975Z,20.65
2022-12-15T09:33:52.469Z,23.42
2022-12-15T09:36:19.739Z,21.98
2022-12-15T09:38:47.874Z,25.60
2022-12-15T09:41:17.426Z,22.75
2022-12-15T09:44:15.912Z,14.73
2022-12-15T09:46:59.696Z,21.50
2022-12-15T09:49:55.319Z,18.08
2022-12-15T09:52:49.389Z,19.98
2022-12-15T09:55:24.827Z,2.85
2022-12-15T09:58:00.047Z,10.80
2022-12-15T10:00:55.267Z,16.95
2022-12-15T10:03:59.651Z,10.35
2022-12-15T10:06:38.015Z,15.68
2022-12-15T10:09:21.379Z,23.48
2022-12-15T10:12:00.536Z,25.05
2022-12-15T10:14:45.895Z,23.23
2022-12-15T10:17:42.532Z,21.90
2022-12-15T10:20:24.394Z,22.13
2022-12-15T10:22:51.385Z,20.80
2022-12-15T10:25:29.730Z,23.15
2022-12-15T10:28:16.207Z,16.75
2022-12-15T10:31:30.064Z,15.57
2022-12-15T10:34:10.910Z,24.90
2022-12-15T10:36:37.945Z,20.30
2022-12-15T10:39:04.801Z,21.83
2022-12-15T10:41:33.673Z,26.98
2022-12-15T10:44:02.545Z,22.25
2022-12-15T10:46:31.835Z,9.10
2022-12-15T10:49:07.614Z,27.67
2022-12-15T10:51:56.231Z,24.30
2022-12-15T10:54:27.262Z,28.63
2022-12-15T10:57:17.603Z,7.60
2022-12-15T10:59:44.644Z,26.65
2022-12-15T11:02:23.989Z,28.70
2022-12-15T11:05:16.760Z,27.45
2022-12-15T11:08:12.249Z,24.92
2022-12-15T11:11:12.748Z,26.17
2022-12-15T11:13:40.554Z,27.63
2022-12-15T11:16:19.327Z,20.77
2022-12-15T11:19:02.233Z,26.33
2022-12-15T11:21:36.907Z,29.23
2022-12-15T11:24:19.962Z,31.42
2022-12-15T11:26:52.250Z,20.40
2022-12-15T11:29:54.723Z,31.10
2022-12-15T11:32:26.885Z,22.17
2022-12-15T11:34:55.122Z,31.27
2022-12-15T11:37:45.034Z,28.95
2022-12-15T11:40:36.595Z,31.65
2022-12-15T11:43:36.826Z,27.55
2022-12-15T11:46:22.647Z,30.38
2022-12-15T11:49:01.654Z,31.85
2022-12-15T11:52:03.356Z,33.65
2022-12-15T11:54:55.352Z,23.58
2022-12-15T11:57:30.817Z,36.13
2022-12-15T12:00:18.485Z,29.77
2022-12-15T12:03:25.481Z,34.05
2022-12-15T12:06:17.410Z,16.92
2022-12-15T12:09:36.270Z,31.92
2022-12-15T12:12:52.549Z,33.50
2022-12-15T12:16:01.828Z,18.65
2022-12-15T12:18:46.549Z,31.15
2022-12-15T12:21:29.976Z,18.00
2022-12-15T12:24:20.005Z,13.50
2022-12-15T12:27:05.546Z,31.13
2022-12-15T12:29:48.754Z,30.80
2022-12-15T12:32:34.936Z,30.73
2022-12-15T12:35:31.969Z,30.05
2022-12-15T12:38:10.680Z,30.58
2022-12-15T12:41:10.745Z,29.98
2022-12-15T12:43:50.257Z,32.47
2022-12-15T12:46:41.960Z,29.23
2022-12-15T12:49:26.093Z,28.48
2022-12-15T12:51:58.509Z,32.13
2022-12-15T12:54:34.349Z,29.17
2022-12-15T12:57:33.553Z,30.13
2022-12-15T13:00:32.467Z,24.90
2022-12-15T13:03:11.621Z,28.90
2022-12-15T13:05:40.993Z,30.60
2022-12-15T13:08:10.374Z,26.60
2022-12-15T13:10:43.407Z,35.25
2022-12-15T13:13:31.518Z,22.13
2022-12-15T13:16:24.690Z,22.23
2022-12-15T13:19:02.956Z,30.40
2022-12-15T13:21:41.834Z,20.83
2022-12-15T13:24:41.379Z,26.23
2022-12-15T13:27:16.962Z,28.20
2022-12-15T13:30:09.314Z,26.10
2022-12-15T13:32:45.647Z,12.00
2022-12-15T13:35:12.405Z,30.05
2022-12-15T13:37:58.904Z,22.63
2022-12-15T13:40:36.095Z,25.75
2022-12-15T13:43:05.890Z,29.75
2022-12-15T13:46:10.360Z,13.35
2022-12-15T13:49:27.535Z,19.30
2022-12-15T13:52:03.309Z,28.23
2022-12-15T13:54:35.934Z,29.50
2022-12-15T13:57:16.390Z,22.15
2022-12-15T13:59:49.385Z,28.75
2022-12-15T14:02:36.062Z,27.60
2022-12-15T14:05:22.079Z,25.98
2022-12-15T14:07:54.936Z,29.98
2022-12-15T14:10:28.109Z,23.42
2022-12-15T14:12:58.100Z,31.08
2022-12-15T14:15:34.183Z,26.58
2022-12-15T14:18:02.354Z,29.83
2022-12-15T14:20:40.282Z,26.40
2022-12-15T14:23:29.354Z,33.10
2022-12-15T14:26:11.333Z,24.98
2022-12-15T14:28:43.900Z,24.15
2022-12-15T14:31:21.581Z,29.15
2022-12-15T14:34:03.438Z,24.95
2022-12-15T14:36:31.502Z,26.33
2022-12-15T14:39:26.388Z,29.63
2022-12-15T14:41:55.192Z,21.23
2022-12-15T14:44:41.858Z,33.50
2022-12-15T14:47:26.940Z,23.83
2022-12-15T14:49:55.864Z,18.77
2022-12-15T14:52:37.775Z,24.02
2022-12-15T14:55:46.360Z,21.20
2022-12-15T14:58:41.293Z,21.73
2022-12-15T15:01:30.974Z,29.77
2022-12-15T15:04:24.520Z,26.25
2022-12-15T15:07:00.653Z,21.88
2022-12-15T15:09:32.640Z,15.82
2022-12-15T15:12:17.430Z,20.10
2022-12-15T15:14:49.645Z,27.20
2022-12-15T15:17:45.273Z,29.75
2022-12-15T15:20:35.775Z,29.35
2022-12-15T15:23:07.466Z,28.80
2022-12-15T15:25:39.249Z,27.52
2022-12-15T15:28:23.007Z,23.35
2022-12-15T15:31:06.102Z,30.25
2022-12-15T15:33:33.478Z,23.63
2022-12-15T15:36:02.602Z,29.70
2022-12-15T15:38:36.110Z,15.38
2022-12-15T15:41:18.379Z,30.33
2022-12-15T15:43:46.048Z,26.70
2022-12-15T15:46:23.252Z,26.27
2022-12-15T15:49:00.871Z,28.55
2022-12-15T15:51:30.598Z,34.97
2022-12-15T15:54:05.532Z,31.13
2022-12-15T15:56:32.468Z,30.60
2022-12-15T15:59:09.424Z,26.80
2022-12-15T16:01:36.355Z,26.80
2022-12-15T16:04:03.303Z,27.33
2022-12-15T16:06:30.225Z,25.05
2022-12-15T16:08:57.068Z,25.60
2022-12-15T16:11:26.728Z,31.63
2022-12-15T16:13:53.560Z,26.67
2022-12-15T16:16:25.152Z,29.67
2022-12-15T16:18:52.033Z,28.08
2022-12-15T16:21:22.214Z,25.55
2022-12-15T16:23:49.665Z,33.42
2022-12-15T16:26:27.259Z,26.98
2022-12-15T16:28:54.220Z,31.58
2022-12-15T16:31:42.059Z,25.02
2022-12-15T16:34:09.215Z,30.23
2022-12-15T16:36:36.273Z,18.02
2022-12-15T16:39:04.121Z,30.42
2022-12-15T16:41:33.068Z,29.48
2022-12-15T16:43:59.867Z,28.08
2022-12-15T16:46:26.785Z,27.88
2022-12-15T16:48:53.700Z,34.35
2022-12-15T16:51:38.948Z,8.95
2022-12-15T16:54:06.711Z,31.02
2022-12-15T16:56:33.802Z,27.13
2022-12-15T16:59:31.378Z,28.75
2022-12-15T17:01:48.256Z,22.13
2022-12-15T17:04:16.646Z,30.45
2022-12-15T17:06:43.748Z,31.80
2022-12-15T17:09:21.161Z,29.35
2022-12-15T17:11:48.403Z,22.40
2022-12-15T17:14:15.863Z,32.33
2022-12-15T17:16:42.755Z,30.52
2022-12-15T17:19:09.589Z,30.33
2022-12-15T17:21:49.882Z,30.55
2022-12-15T17:24:20.007Z,14.90
2022-12-15T17:26:47.010Z,20.70
2022-12-15T17:29:20.920Z,29.88
2022-12-15T17:31:47.908Z,30.33
2022-12-15T17:34:32.385Z,29.70
2022-12-15T17:37:03.031Z,20.38
2022-12-15T17:39:31.116Z,26.08
2022-12-15T17:42:01.148Z,28.52
2022-12-15T17:44:35.032Z,27.02
2022-12-15T17:47:04.395Z,31.13
2022-12-15T17:49:36.080Z,31.35
2022-12-15T17:52:16.899Z,28.85
2022-12-15T17:54:43.953Z,28.58
2022-12-15T17:57:13.940Z,28.67
2022-12-15T17:59:40.891Z,27.77
2022-12-15T18:02:13.266Z,25.25
2022-12-15T18:04:41.484Z,29.60
2022-12-15T18:07:20.339Z,29.30
2022-12-15T18:09:48.797Z,24.25
2022-12-15T18:12:26.099Z,28.55
2022-12-15T18:14:53.802Z,27.58
2022-12-15T18:17:21.109Z,27.85
2022-12-15T18:19:48.218Z,29.02
2022-12-15T18:22:22.259Z,28.52
2022-12-15T18:24:51.361Z,27.77
2022-12-15T18:27:27.864Z,30.25
2022-12-15T18:29:56.464Z,32.55
2022-12-15T18:32:26.277Z,29.75
2022-12-15T18:34:54.054Z,16.73
2022-12-15T18:37:24.540Z,25.52
2022-12-15T18:39:51.509Z,28.88
2022-12-15T18:42:21.418Z,30.05
2022-12-15T18:44:51.069Z,4.43
2022-12-15T18:47:20.975Z,24.73
2022-12-15T18:49:47.887Z,28.73
2022-12-15T18:52:30.033Z,21.25
2022-12-15T18:55:00.136Z,30.30
2022-12-15T18:57:35.836Z,29.75
2022-12-15T19:00:17.459Z,16.38
2022-12-15T19:02:44.406Z,25.65
2022-12-15T19:05:27.384Z,27.55
2022-12-15T19:08:10.085Z,26.58
2022-12-15T19:10:41.871Z,21.98
2022-12-15T19:13:17.774Z,28.70
2022-12-15T19:15:45.499Z,24.73
2022-12-15T19:18:41.712Z,18.90
2022-12-15T19:21:44.099Z,25.15
2022-12-15T19:24:48.515Z,25.40
2022-12-15T19:27:23.197Z,30.25
2022-12-15T19:29:50.920Z,30.80
2022-12-15T19:32:17.793Z,23.17
2022-12-15T19:34:44.693Z,29.38
2022-12-15T19:37:22.391Z,23.15
2022-12-15T19:39:49.546Z,27.80
2022-12-15T19:42:25.500Z,25.73
2022-12-15T19:44:52.320Z,26.98
2022-12-15T19:47:19.249Z,23.33
2022-12-15T19:49:46.108Z,21.90
2022-12-15T19:52:17.793Z,14.98
2022-12-15T19:54:47.257Z,23.58
2022-12-15T19:57:17.591Z,22.27
2022-12-15T19:59:44.981Z,26.00
2022-12-15T20:02:20.381Z,25.33
2022-12-15T20:04:48.411Z,21.33
2022-12-15T20:07:29.458Z,23.95
2022-12-15T20:09:57.995Z,19.25
2022-12-15T20:12:25.117Z,24.50
2022-12-15T20:14:52.325Z,24.20
2022-12-15T20:17:19.112Z,23.85
2022-12-15T20:19:46.114Z,23.80
2022-12-15T20:22:19.186Z,21.23
2022-12-15T20:24:47.970Z,22.13
2022-12-15T20:27:17.790Z,22.27
2022-12-15T20:29:45.361Z,17.75
2022-12-15T20:32:19.863Z,22.52
2022-12-15T20:34:47.060Z,22.70
2022-12-15T20:37:29.387Z,17.63
2022-12-15T20:39:57.812Z,23.25
2022-12-15T20:42:25.480Z,21.65
2022-12-15T20:44:52.293Z,17.25
2022-12-15T20:47:26.478Z,20.88
2022-12-15T20:49:54.900Z,20.52
2022-12-15T20:52:26.292Z,16.77
2022-12-15T20:54:54.220Z,20.83
2022-12-15T20:57:21.475Z,21.35
2022-12-15T20:59:48.371Z,20.33
2022-12-15T21:02:22.354Z,29.10
2022-12-15T21:04:50.821Z,19.73
2022-12-15T21:07:18.751Z,14.98
2022-12-15T21:09:45.568Z,19.55
2022-12-15T21:12:27.621Z,19.42
2022-12-15T21:14:55.070Z,14.27
2022-12-15T21:17:25.623Z,16.23
2022-12-15T21:19:52.832Z,18.15
2022-12-15T21:22:25.494Z,17.60
2022-12-15T21:24:55.304Z,13.93
2022-12-15T21:27:22.764Z,18.45
2022-12-15T21:29:52.599Z,19.42
2022-12-15T21:32:20.873Z,17.75
2022-12-15T21:34:47.760Z,16.05
2022-12-15T21:37:27.443Z,16.27
2022-12-15T21:39:55.093Z,16.65
2022-12-15T21:42:22.518Z,4.72
2022-12-15T21:44:49.375Z,18.00
2022-12-15T21:47:49.745Z,16.42
2022-12-15T21:50:19.702Z,18.48
2022-12-15T21:52:47.646Z,12.52
2022-12-15T21:55:21.272Z,13.40
2022-12-15T21:57:48.121Z,18.98
2022-12-15T22:00:17.639Z,20.25
2022-12-15T22:02:46.633Z,19.60
2022-12-15T22:05:22.557Z,15.25
2022-12-15T22:07:50.515Z,17.30
2022-12-15T22:10:19.112Z,19.35
2022-12-15T22:12:57.407Z,17.30
2022-12-15T22:15:26.233Z,16.48
2022-12-15T22:17:53.058Z,15.90
2022-12-15T22:20:24.029Z,14.48
2022-12-15T22:22:51.301Z,15.48
2022-12-15T22:25:25.049Z,17.27
2022-12-15T22:27:52.620Z,17.95
2022-12-15T22:30:26.317Z,16.83
2022-12-15T22:32:55.811Z,14.27
2022-12-15T22:35:25.910Z,17.75
2022-12-15T22:37:53.956Z,14.98
2022-12-15T22:40:23.294Z,12.93
2022-12-15T22:42:57.800Z,18.30
2022-12-15T22:45:24.948Z,14.95
2022-12-15T22:47:55.060Z,16.55
2022-12-15T22:50:26.808Z,12.10
2022-12-15T22:52:55.215Z,16.15
2022-12-15T22:55:24.364Z,14.18
2022-12-15T22:58:01.434Z,13.85
2022-12-15T23:00:28.533Z,13.77
2022-12-15T23:05:29.260Z,14.57
2022-12-15T23:07:56.188Z,9.63
2022-12-15T23:10:42.031Z,14.50
2022-12-15T23:13:08.925Z,13.38
2022-12-15T23:15:54.773Z,8.57
2022-12-15T23:18:21.681Z,11.50
2022-12-15T23:20:48.630Z,16.23
2022-12-15T23:23:15.509Z,11.75
2022-12-15T23:25:42.443Z,15.90
2022-12-15T23:28:09.310Z,14.98
2022-12-15T23:30:36.325Z,14.68
2022-12-15T23:33:03.237Z,13.48
2022-12-15T23:35:30.091Z,13.65
2022-12-15T23:37:58.485Z,14.77
2022-12-15T23:40:25.343Z,14.57
2022-12-15T23:42:53.612Z,13.60
2022-12-15T23:45:20.826Z,13.98
2022-12-15T23:47:47.743Z,14.77
2022-12-15T23:50:14.788Z,12.75
2022-12-15T23:52:41.597Z,11.10
2022-12-15T23:55:11.582Z,12.55
2022-12-15T23:57:39.344Z,7.07
